createdAt,value
2022-09-28T00:00:59.377Z,83.51
2022-09-28T00:03:21.315Z,83.71
2022-09-28T00:05:43.091Z,83.36
2022-09-28T00:08:04.852Z,83.56
2022-09-28T00:10:26.928Z,83.41
2022-09-28T00:12:50.524Z,83.40
2022-09-28T00:15:12.492Z,83.52
2022-09-28T00:17:34.751Z,83.56
2022-09-28T00:19:58.026Z,83.28
2022-09-28T00:22:19.835Z,83.52
2022-09-28T00:24:41.636Z,83.42
2022-09-28T00:27:04.334Z,83.52
2022-09-28T00:29:36.168Z,83.42
2022-09-28T00:32:03.009Z,83.38
2022-09-28T00:34:25.370Z,83.73
2022-09-28T00:36:48.366Z,83.54
2022-09-28T00:39:10.561Z,83.98
2022-09-28T00:41:35.361Z,83.99
2022-09-28T00:44:25.253Z,83.62
2022-09-28T00:46:47.227Z,84.14
2022-09-28T00:49:17.383Z,84.26
2022-09-28T00:51:43.257Z,84.03
2022-09-28T00:54:07.715Z,84.08
2022-09-28T00:56:33.529Z,84.03
2022-09-28T00:58:58.983Z,84.22
2022-09-28T01:01:21.749Z,83.94
2022-09-28T01:03:46.583Z,84.34
2022-09-28T01:06:09.644Z,84.23
2022-09-28T01:08:34.566Z,84.31
2022-09-28T01:10:59.956Z,84.19
2022-09-28T01:13:25.057Z,84.48
2022-09-28T01:16:27.263Z,84.54
2022-09-28T01:19:14.133Z,84.50
2022-09-28T01:22:06.927Z,84.14
2022-09-28T01:24:45.481Z,84.30
2022-09-28T01:27:41.982Z,84.53
2022-09-28T01:30:09.628Z,84.50
2022-09-28T01:32:45.004Z,84.49
2022-09-28T01:35:18.671Z,84.79
2022-09-28T01:37:49.601Z,84.38
2022-09-28T01:40:14.906Z,84.25
2022-09-28T01:42:41.864Z,84.28
2022-09-28T01:45:27.199Z,84.28
2022-09-28T01:47:50.676Z,84.28
2022-09-28T01:50:18.389Z,84.28
2022-09-28T01:52:56.219Z,83.99
2022-09-28T01:55:30.708Z,84.31
2022-09-28T01:58:03.492Z,84.34
2022-09-28T02:00:26.886Z,83.92
2022-09-28T02:03:09.687Z,83.74
2022-09-28T02:05:40.647Z,83.88
2022-09-28T02:08:29.598Z,83.73
2022-09-28T02:11:03.080Z,83.67
2022-09-28T02:13:34.685Z,83.89
2022-09-28T02:16:18.322Z,83.73
2022-09-28T02:18:41.141Z,83.42
2022-09-28T02:21:15.831Z,84.03
2022-09-28T02:23:51.392Z,83.50
2022-09-28T02:26:19.031Z,84.03
2022-09-28T02:28:40.990Z,84.00
2022-09-28T02:31:03.078Z,84.10
2022-09-28T02:33:34.135Z,84.07
2022-09-28T02:35:59.854Z,84.19
2022-09-28T02:38:22.893Z,84.13
2022-09-28T02:41:22.551Z,84.30
2022-09-28T02:44:08.013Z,84.31
2022-09-28T02:47:23.518Z,84.53
2022-09-28T02:50:39.679Z,84.60
2022-09-28T02:53:28.976Z,84.86
2022-09-28T02:56:47.391Z,84.56
2022-09-28T02:59:43.191Z,84.37
2022-09-28T03:02:27.753Z,84.67
2022-09-28T03:05:03.950Z,84.87
2022-09-28T03:07:41.662Z,84.81
2022-09-28T03:10:16.027Z,84.92
2022-09-28T03:12:39.540Z,84.75
2022-09-28T03:15:23.210Z,84.68
2022-09-28T03:17:45.111Z,84.79
2022-09-28T03:20:11.926Z,84.64
2022-09-28T03:22:34.123Z,84.70
2022-09-28T03:24:55.879Z,84.61
2022-09-28T03:27:17.963Z,84.78
2022-09-28T03:29:40.509Z,84.61
2022-09-28T03:32:02.941Z,84.82
2022-09-28T03:34:24.739Z,84.94
2022-09-28T03:36:46.905Z,84.82
2022-09-28T03:39:09.231Z,84.62
2022-09-28T03:41:31.647Z,84.82
2022-09-28T03:43:54.187Z,84.67
2022-09-28T03:46:18.170Z,85.01
2022-09-28T03:48:44.363Z,84.74
2022-09-28T03:51:09.425Z,84.86
2022-09-28T03:53:32.689Z,84.55
2022-09-28T03:56:01.714Z,84.84
2022-09-28T03:58:24.215Z,84.69
2022-09-28T04:00:46.499Z,84.87
2022-09-28T04:03:08.579Z,84.76
2022-09-28T04:05:30.958Z,84.75
2022-09-28T04:07:56.204Z,84.51
2022-09-28T04:10:18.023Z,84.49
2022-09-28T04:12:39.869Z,84.81
2022-09-28T04:15:01.780Z,84.65
2022-09-28T04:17:23.667Z,84.44
2022-09-28T04:19:45.634Z,84.53
2022-09-28T04:22:32.039Z,84.71
2022-09-28T04:24:53.899Z,84.67
2022-09-28T04:27:34.164Z,84.62
2022-09-28T04:29:57.025Z,84.57
2022-09-28T04:32:19.210Z,84.79
2022-09-28T04:34:44.123Z,85.02
2022-09-28T04:37:06.772Z,84.58
2022-09-28T04:39:28.551Z,84.77
2022-09-28T04:41:51.559Z,84.76
2022-09-28T04:44:13.816Z,84.57
2022-09-28T04:46:36.139Z,84.17
2022-09-28T04:49:20.805Z,84.56
2022-09-28T04:51:50.060Z,84.59
2022-09-28T04:54:12.039Z,84.46
2022-09-28T04:56:33.874Z,84.12
2022-09-28T04:58:55.758Z,84.25
2022-09-28T05:01:23.724Z,83.90
2022-09-28T05:03:54.886Z,84.02
2022-09-28T05:06:28.686Z,84.44
2022-09-28T05:08:57.600Z,83.92
2022-09-28T05:11:21.387Z,84.10
2022-09-28T05:13:45.817Z,84.12
2022-09-28T05:16:12.529Z,84.01
2022-09-28T05:18:57.392Z,83.81
2022-09-28T05:21:20.186Z,83.63
2022-09-28T05:23:47.342Z,84.03
2022-09-28T05:26:09.358Z,83.54
2022-09-28T05:28:33.509Z,83.77
2022-09-28T05:31:14.095Z,83.76
2022-09-28T05:33:54.477Z,83.58
2022-09-28T05:36:16.480Z,83.87
2022-09-28T05:38:38.606Z,83.49
2022-09-28T05:41:05.718Z,83.57
2022-09-28T05:43:28.413Z,83.56
2022-09-28T05:45:55.051Z,83.47
2022-09-28T05:48:17.612Z,83.78
2022-09-28T05:50:40.535Z,83.73
2022-09-28T05:53:10.519Z,84.13
2022-09-28T05:55:33.519Z,83.98
2022-09-28T05:58:00.232Z,84.19
2022-09-28T06:00:22.271Z,84.03
2022-09-28T06:02:57.289Z,84.35
2022-09-28T06:05:19.045Z,84.11
2022-09-28T06:07:40.910Z,84.05
2022-09-28T06:10:03.074Z,84.41
2022-09-28T06:12:34.996Z,84.34
2022-09-28T06:15:02.267Z,84.72
2022-09-28T06:17:24.257Z,84.72
2022-09-28T06:20:07.092Z,84.73
2022-09-28T06:22:53.023Z,85.07
2022-09-28T06:25:15.022Z,85.49
2022-09-28T06:27:37.440Z,85.54
2022-09-28T06:30:00.828Z,85.43
2022-09-28T06:32:22.947Z,85.40
2022-09-28T06:34:45.857Z,84.83
2022-09-28T06:37:08.273Z,84.65
2022-09-28T06:39:31.188Z,83.85
2022-09-28T06:41:53.017Z,80.38
2022-09-28T06:44:16.267Z,79.81
2022-09-28T06:47:01.355Z,80.22
2022-09-28T06:49:39.805Z,80.82
2022-09-28T06:52:21.960Z,81.71
2022-09-28T06:55:22.351Z,82.34
2022-09-28T06:58:01.894Z,82.46
2022-09-28T07:00:23.823Z,82.87
2022-09-28T07:02:46.237Z,83.40
2022-09-28T07:05:27.474Z,83.16
2022-09-28T07:08:16.083Z,83.46
2022-09-28T07:10:57.514Z,83.05
2022-09-28T07:13:49.668Z,83.37
2022-09-28T07:16:14.417Z,83.11
2022-09-28T07:18:36.229Z,83.29
2022-09-28T07:20:58.656Z,82.83
2022-09-28T07:23:20.898Z,83.18
2022-09-28T07:26:19.053Z,82.99
2022-09-28T07:28:59.596Z,82.58
2022-09-28T07:31:26.726Z,82.15
2022-09-28T07:34:01.524Z,81.41
2022-09-28T07:36:27.207Z,81.57
2022-09-28T07:38:49.094Z,81.26
2022-09-28T07:41:12.085Z,80.84
2022-09-28T07:43:52.259Z,80.22
2022-09-28T07:46:14.859Z,79.89
2022-09-28T07:48:45.965Z,80.14
2022-09-28T07:51:34.212Z,79.62
2022-09-28T07:54:17.797Z,79.01
2022-09-28T07:57:07.036Z,79.24
2022-09-28T07:59:50.243Z,79.13
2022-09-28T08:02:37.364Z,79.07
2022-09-28T08:04:59.795Z,78.71
2022-09-28T08:07:24.260Z,77.71
2022-09-28T08:09:53.485Z,76.61
2022-09-28T08:12:21.637Z,76.52
2022-09-28T08:15:02.271Z,75.85
2022-09-28T08:17:47.847Z,76.30
2022-09-28T08:20:28.572Z,76.27
2022-09-28T08:22:50.761Z,75.28
2022-09-28T08:25:12.558Z,75.96
2022-09-28T08:27:34.463Z,76.37
2022-09-28T08:29:56.953Z,75.25
2022-09-28T08:32:37.003Z,74.56
2022-09-28T08:35:17.723Z,74.43
2022-09-28T08:37:55.692Z,74.14
2022-09-28T08:40:58.864Z,74.44
2022-09-28T08:44:11.578Z,74.18
2022-09-28T08:47:00.335Z,73.32
2022-09-28T08:49:50.450Z,72.76
2022-09-28T08:52:39.743Z,73.56
2022-09-28T08:55:18.789Z,73.75
2022-09-28T08:57:57.951Z,72.79
2022-09-28T09:00:38.708Z,72.54
2022-09-28T09:03:15.016Z,71.97
2022-09-28T09:05:56.105Z,71.57
2022-09-28T09:09:15.051Z,71.79
2022-09-28T09:12:05.233Z,71.91
2022-09-28T09:14:37.404Z,72.11
2022-09-28T09:17:20.888Z,71.47
2022-09-28T09:20:30.068Z,71.43
2022-09-28T09:23:12.846Z,71.81
2022-09-28T09:25:47.332Z,71.48
2022-09-28T09:28:52.351Z,71.00
2022-09-28T09:31:38.300Z,71.79
2022-09-28T09:34:52.840Z,70.48
2022-09-28T09:37:58.635Z,70.34
2022-09-28T09:41:23.992Z,70.43
2022-09-28T09:44:24.977Z,70.47
2022-09-28T09:47:17.418Z,70.33
2022-09-28T09:50:30.247Z,69.70
2022-09-28T09:53:13.329Z,66.99
2022-09-28T09:55:50.387Z,67.79
2022-09-28T09:58:35.655Z,67.71
2022-09-28T10:01:15.826Z,66.33
2022-09-28T10:04:02.443Z,66.37
2022-09-28T10:06:36.189Z,66.22
2022-09-28T10:09:20.225Z,65.66
2022-09-28T10:11:51.918Z,65.51
2022-09-28T10:14:20.036Z,65.50
2022-09-28T10:16:51.056Z,64.44
2022-09-28T10:19:35.461Z,65.01
2022-09-28T10:22:28.775Z,64.22
2022-09-28T10:24:57.455Z,64.25
2022-09-28T10:27:35.049Z,64.25
2022-09-28T10:30:14.874Z,62.61
2022-09-28T10:32:45.945Z,61.65
2022-09-28T10:35:19.884Z,61.94
2022-09-28T10:38:15.814Z,60.96
2022-09-28T10:40:54.517Z,61.73
2022-09-28T10:44:08.747Z,62.32
2022-09-28T10:47:02.212Z,63.67
2022-09-28T10:49:44.401Z,64.64
2022-09-28T10:52:41.505Z,64.79
2022-09-28T10:55:21.200Z,65.04
2022-09-28T10:57:43.028Z,63.56
2022-09-28T11:00:08.301Z,63.25
2022-09-28T11:02:41.313Z,63.71
2022-09-28T11:05:27.929Z,64.39
2022-09-28T11:07:55.296Z,64.92
2022-09-28T11:10:26.363Z,64.89
2022-09-28T11:12:54.466Z,64.84
2022-09-28T11:15:24.573Z,64.97
2022-09-28T11:17:47.934Z,64.76
2022-09-28T11:20:27.749Z,64.91
2022-09-28T11:23:22.050Z,65.37
2022-09-28T11:26:00.518Z,65.91
2022-09-28T11:28:32.724Z,65.56
2022-09-28T11:30:57.729Z,65.67
2022-09-28T11:33:47.761Z,65.94
2022-09-28T11:37:01.585Z,65.70
2022-09-28T11:40:05.685Z,65.76
2022-09-28T11:42:59.160Z,65.34
2022-09-28T11:45:57.779Z,65.50
2022-09-28T11:48:32.577Z,65.16
2022-09-28T11:51:15.447Z,66.07
2022-09-28T11:53:57.067Z,66.28
2022-09-28T11:56:42.700Z,66.45
2022-09-28T11:59:22.566Z,66.58
2022-09-28T12:01:51.607Z,66.89
2022-09-28T12:04:40.079Z,67.19
2022-09-28T12:07:27.843Z,66.20
2022-09-28T12:10:00.299Z,66.16
2022-09-28T12:12:43.594Z,66.05
2022-09-28T12:15:15.882Z,66.36
2022-09-28T12:17:48.898Z,65.99
2022-09-28T12:20:40.209Z,65.74
2022-09-28T12:23:18.710Z,65.72
2022-09-28T12:25:49.613Z,66.24
2022-09-28T12:28:32.261Z,66.40
2022-09-28T12:30:59.595Z,66.51
2022-09-28T12:33:21.660Z,66.58
2022-09-28T12:36:14.908Z,66.52
2022-09-28T12:39:56.999Z,66.34
2022-09-28T12:42:53.010Z,64.46
2022-09-28T12:46:10.592Z,63.61
2022-09-28T12:49:04.160Z,63.34
2022-09-28T12:51:38.113Z,63.62
2022-09-28T12:54:46.557Z,64.04
2022-09-28T12:57:36.427Z,64.44
2022-09-28T13:00:11.923Z,64.96
2022-09-28T13:03:02.394Z,65.69
2022-09-28T13:05:51.520Z,67.27
2022-09-28T13:08:47.827Z,68.56
2022-09-28T13:11:18.603Z,68.49
2022-09-28T13:14:14.516Z,67.60
2022-09-28T13:17:00.779Z,67.98
2022-09-28T13:19:46.988Z,67.87
2022-09-28T13:22:29.947Z,67.89
2022-09-28T13:24:58.457Z,67.88
2022-09-28T13:27:34.917Z,68.10
2022-09-28T13:30:02.398Z,68.55
2022-09-28T13:32:26.899Z,69.14
2022-09-28T13:34:50.693Z,69.39
2022-09-28T13:37:19.834Z,69.51
2022-09-28T13:39:45.015Z,70.24
2022-09-28T13:42:10.326Z,70.32
2022-09-28T13:45:17.375Z,70.47
2022-09-28T13:47:51.722Z,70.64
2022-09-28T13:50:47.473Z,69.86
2022-09-28T13:53:34.899Z,69.65
2022-09-28T13:56:35.579Z,70.17
2022-09-28T13:59:03.454Z,70.22
2022-09-28T14:02:00.650Z,70.36
2022-09-28T14:04:59.932Z,71.13
2022-09-28T14:07:24.596Z,71.91
2022-09-28T14:10:09.191Z,72.00
2022-09-28T14:12:50.292Z,72.08
2022-09-28T14:15:30.403Z,72.81
2022-09-28T14:18:01.301Z,72.85
2022-09-28T14:20:26.207Z,73.76
2022-09-28T14:23:40.405Z,73.79
2022-09-28T14:26:11.460Z,74.12
2022-09-28T14:29:10.229Z,73.93
2022-09-28T14:31:32.273Z,74.12
2022-09-28T14:33:58.507Z,74.22
2022-09-28T14:36:47.338Z,74.07
2022-09-28T14:39:51.266Z,74.32
2022-09-28T14:42:22.242Z,74.79
2022-09-28T14:45:06.118Z,74.44
2022-09-28T14:47:36.301Z,75.25
2022-09-28T14:50:22.485Z,75.77
2022-09-28T14:53:04.959Z,74.56
2022-09-28T14:55:35.785Z,73.63
2022-09-28T14:57:59.328Z,73.83
2022-09-28T15:00:26.160Z,74.47
2022-09-28T15:02:52.793Z,74.99
2022-09-28T15:05:42.720Z,74.62
2022-09-28T15:08:07.531Z,74.46
2022-09-28T15:10:37.649Z,74.23
2022-09-28T15:13:06.023Z,74.75
2022-09-28T15:15:35.692Z,75.15
2022-09-28T15:18:18.920Z,75.68
2022-09-28T15:20:45.484Z,76.34
2022-09-28T15:23:44.212Z,76.61
2022-09-28T15:26:21.865Z,76.91
2022-09-28T15:28:45.131Z,77.08
2022-09-28T15:31:07.011Z,77.47
2022-09-28T15:33:54.971Z,77.70
2022-09-28T15:36:24.269Z,77.92
2022-09-28T15:39:02.010Z,78.13
2022-09-28T15:41:26.179Z,78.35
2022-09-28T15:44:20.274Z,78.36
2022-09-28T15:46:48.971Z,78.69
2022-09-28T15:49:31.569Z,78.84
2022-09-28T15:51:56.106Z,78.59
2022-09-28T15:54:26.715Z,78.53
2022-09-28T15:57:03.411Z,78.94
2022-09-28T15:59:39.686Z,79.30
2022-09-28T16:02:15.035Z,79.16
2022-09-28T16:04:50.376Z,79.46
2022-09-28T16:07:40.861Z,79.24
2022-09-28T16:10:11.628Z,79.09
2022-09-28T16:12:37.604Z,79.57
2022-09-28T16:15:16.306Z,79.63
2022-09-28T16:17:38.423Z,79.71
2022-09-28T16:20:17.644Z,80.11
2022-09-28T16:22:43.529Z,80.06
2022-09-28T16:25:05.866Z,79.98
2022-09-28T16:27:40.834Z,80.05
2022-09-28T16:30:24.215Z,80.28
2022-09-28T16:33:05.714Z,80.38
2022-09-28T16:35:51.023Z,80.32
2022-09-28T16:38:14.763Z,80.70
2022-09-28T16:40:42.543Z,80.67
2022-09-28T16:43:08.523Z,80.53
2022-09-28T16:45:30.548Z,80.37
2022-09-28T16:47:56.420Z,80.39
2022-09-28T16:50:21.259Z,80.58
2022-09-28T16:53:02.138Z,80.50
2022-09-28T16:55:39.430Z,80.64
2022-09-28T16:58:04.810Z,80.41
2022-09-28T17:00:27.169Z,80.76
2022-09-28T17:02:53.347Z,80.48
2022-09-28T17:05:17.899Z,80.44
2022-09-28T17:07:40.468Z,80.28
2022-09-28T17:10:02.321Z,80.34
2022-09-28T17:12:28.801Z,80.32
2022-09-28T17:14:50.987Z,80.38
2022-09-28T17:17:16.969Z,80.53
2022-09-28T17:19:39.124Z,80.04
2022-09-28T17:22:01.087Z,80.35
2022-09-28T17:24:22.961Z,80.75
2022-09-28T17:26:49.021Z,80.69
2022-09-28T17:29:15.028Z,80.67
2022-09-28T17:31:37.040Z,81.03
2022-09-28T17:33:58.888Z,80.65
2022-09-28T17:36:21.963Z,81.03
2022-09-28T17:38:45.398Z,81.13
2022-09-28T17:41:11.581Z,81.33
2022-09-28T17:43:33.334Z,81.09
2022-09-28T17:45:55.203Z,81.23
2022-09-28T17:48:23.366Z,81.22
2022-09-28T17:50:47.470Z,81.39
2022-09-28T17:53:10.703Z,81.60
2022-09-28T17:55:36.622Z,82.10
2022-09-28T17:58:01.418Z,81.91
2022-09-28T18:00:27.269Z,82.00
2022-09-28T18:02:50.871Z,82.18
2022-09-28T18:05:14.988Z,81.96
2022-09-28T18:07:38.826Z,82.24
2022-09-28T18:10:01.089Z,82.07
2022-09-28T18:12:25.196Z,82.36
2022-09-28T18:14:47.105Z,82.13
2022-09-28T18:17:08.950Z,82.30
2022-09-28T18:19:32.315Z,82.14
2022-09-28T18:21:56.209Z,82.23
2022-09-28T18:24:18.445Z,82.70
2022-09-28T18:26:40.263Z,82.20
2022-09-28T18:29:02.218Z,82.17
2022-09-28T18:31:24.135Z,81.83
2022-09-28T18:36:35.645Z,82.00
2022-09-28T18:38:57.466Z,81.85
2022-09-28T18:41:19.808Z,81.83
2022-09-28T18:43:43.400Z,81.81
2022-09-28T18:46:08.092Z,81.64
2022-09-28T18:48:29.944Z,81.86
2022-09-28T18:50:51.705Z,81.81
2022-09-28T18:53:13.585Z,81.67
2022-09-28T18:55:36.166Z,81.72
2022-09-28T18:57:58.022Z,81.38
2022-09-28T19:00:20.027Z,81.60
2022-09-28T19:02:42.369Z,81.20
2022-09-28T19:05:05.979Z,81.33
2022-09-28T19:07:28.273Z,81.45
2022-09-28T19:09:50.524Z,81.41
2022-09-28T19:12:13.143Z,81.34
2022-09-28T19:14:34.938Z,81.21
2022-09-28T19:16:56.725Z,81.35
2022-09-28T19:19:20.967Z,81.33
2022-09-28T19:21:43.629Z,81.50
2022-09-28T19:24:05.719Z,81.41
2022-09-28T19:26:28.887Z,81.42
2022-09-28T19:28:51.619Z,81.39
2022-09-28T19:31:13.661Z,81.55
2022-09-28T19:33:37.004Z,81.53
2022-09-28T19:36:21.824Z,81.57
2022-09-28T19:38:44.283Z,81.59
2022-09-28T19:41:39.162Z,81.59
2022-09-28T19:44:04.281Z,82.02
2022-09-28T19:46:26.511Z,81.90
2022-09-28T19:48:48.555Z,82.04
2022-09-28T19:51:10.562Z,81.93
2022-09-28T19:53:38.575Z,82.27
2022-09-28T19:56:05.121Z,82.09
2022-09-28T19:58:32.653Z,82.16
2022-09-28T20:00:54.672Z,82.20
2022-09-28T20:03:16.803Z,82.18
2022-09-28T20:05:41.379Z,82.01
2022-09-28T20:10:30.207Z,82.08
2022-09-28T20:12:52.100Z,81.98
2022-09-28T20:15:14.271Z,82.10
2022-09-28T20:17:36.601Z,81.64
2022-09-28T20:19:58.622Z,81.56
2022-09-28T20:22:21.329Z,81.65
2022-09-28T20:24:44.052Z,81.49
2022-09-28T20:27:05.942Z,81.35
2022-09-28T20:29:27.893Z,81.59
2022-09-28T20:31:49.951Z,81.44
2022-09-28T20:34:12.398Z,81.46
2022-09-28T20:36:34.950Z,81.35
2022-09-28T20:38:58.389Z,81.42
2022-09-28T20:41:23.266Z,81.48
2022-09-28T20:43:46.744Z,81.75
2022-09-28T20:46:10.600Z,81.92
2022-09-28T20:48:33.024Z,81.92
2022-09-28T20:51:03.853Z,81.92
2022-09-28T20:53:26.064Z,81.70
2022-09-28T20:55:47.825Z,81.66
2022-09-28T20:58:09.619Z,81.86
2022-09-28T21:00:31.523Z,81.77
2022-09-28T21:02:53.466Z,81.89
2022-09-28T21:05:15.598Z,81.68
2022-09-28T21:07:37.482Z,81.95
2022-09-28T21:09:59.459Z,81.75
2022-09-28T21:12:21.443Z,82.30
2022-09-28T21:14:43.183Z,81.95
2022-09-28T21:17:04.944Z,81.64
2022-09-28T21:19:28.454Z,81.92
2022-09-28T21:21:51.385Z,81.41
2022-09-28T21:24:13.222Z,81.57
2022-09-28T21:26:35.616Z,81.38
2022-09-28T21:29:00.829Z,81.71
2022-09-28T21:31:28.863Z,81.71
2022-09-28T21:33:51.698Z,81.28
2022-09-28T21:36:13.619Z,81.38
2022-09-28T21:38:35.442Z,81.49
2022-09-28T21:40:59.673Z,81.67
2022-09-28T21:43:21.590Z,81.64
2022-09-28T21:45:43.839Z,81.74
2022-09-28T21:48:05.819Z,81.61
2022-09-28T21:50:27.749Z,81.90
2022-09-28T21:52:52.222Z,81.43
2022-09-28T21:55:13.945Z,81.80
2022-09-28T21:57:35.749Z,82.02
2022-09-28T21:59:57.496Z,81.74
2022-09-28T22:02:19.274Z,81.87
2022-09-28T22:04:41.154Z,82.05
2022-09-28T22:07:02.941Z,81.96
2022-09-28T22:09:24.747Z,81.83
2022-09-28T22:11:48.989Z,82.17
2022-09-28T22:14:11.002Z,81.80
2022-09-28T22:16:32.830Z,81.84
2022-09-28T22:18:54.874Z,81.57
2022-09-28T22:21:24.131Z,81.60
2022-09-28T22:23:46.458Z,81.61
2022-09-28T22:26:19.557Z,81.47
2022-09-28T22:28:50.418Z,81.66
2022-09-28T22:31:12.259Z,82.08
2022-09-28T22:33:34.225Z,81.77
2022-09-28T22:35:56.114Z,82.22
2022-09-28T22:38:24.321Z,81.71
2022-09-28T22:40:55.931Z,81.71
2022-09-28T22:43:18.937Z,81.58
2022-09-28T22:45:40.780Z,81.64
2022-09-28T22:48:02.581Z,81.87
2022-09-28T22:50:24.315Z,81.39
2022-09-28T22:52:46.106Z,81.42
2022-09-28T22:55:08.459Z,81.59
2022-09-28T22:57:30.766Z,81.36
2022-09-28T22:59:52.544Z,81.38
2022-09-28T23:02:14.315Z,81.50
2022-09-28T23:04:36.093Z,81.80
2022-09-28T23:06:58.148Z,81.90
2022-09-28T23:09:20.090Z,81.61
2022-09-28T23:11:42.074Z,82.02
2022-09-28T23:14:04.061Z,81.62
2022-09-28T23:16:27.026Z,81.46
2022-09-28T23:18:49.284Z,81.70
2022-09-28T23:21:15.686Z,81.39
2022-09-28T23:23:38.663Z,81.29
2022-09-28T23:26:15.034Z,81.89
2022-09-28T23:28:36.771Z,81.73
2022-09-28T23:31:09.770Z,81.58
2022-09-28T23:33:31.596Z,81.64
2022-09-28T23:35:53.439Z,81.85
2022-09-28T23:38:18.507Z,81.63
2022-09-28T23:40:45.669Z,81.44
2022-09-28T23:43:09.473Z,82.18
2022-09-28T23:45:31.338Z,81.55
2022-09-28T23:47:53.167Z,81.75
2022-09-28T23:50:15.001Z,81.36
2022-09-28T23:52:36.811Z,81.49
2022-09-28T23:54:58.641Z,81.89
2022-09-28T23:57:20.463Z,81.41
2022-09-28T23:59:42.253Z,81.16
